Time;durP1;ratioP1;P1;durP2;ratioP2;P2;SDS_P1;SDS_P2;PMS_P1;PMS_P2;Temp;Humidity;BMP_temperature;BMP_pressure;BME280_temperature;BME280_humidity;BME280_pressure;Samples;Min_cycle;Max_cycle;Signal;HPM_P1;HPM_P2
2022/07/13 00:00:37;;;;;;;3.13;1.23;;;;;;;19.76;71.14;100845.59;5102715;28;20138;-58
2022/07/13 00:03:04;;;;;;;3.00;1.25;;;;;;;19.75;71.13;100857.03;5101971;28;20047;-59
2022/07/13 00:05:32;;;;;;;2.60;1.20;;;;;;;19.73;70.97;100851.00;5108313;28;20399;-58
2022/07/13 00:08:00;;;;;;;3.75;1.30;;;;;;;19.72;71.09;100865.06;5102881;28;20550;-57
2022/07/13 00:10:42;;;;;;;3.42;1.42;;;;;;;19.72;70.96;100860.66;5110979;28;20267;-59
2022/07/13 00:13:12;;;;;;;2.28;0.90;;;;;;;19.70;71.16;100856.38;5095273;28;20044;-59
2022/07/13 00:18:20;;;;;;;5.22;1.13;;;;;;;19.66;71.10;100860.06;5095008;28;20060;-59
2022/07/13 00:21:02;;;;;;;4.93;1.30;;;;;;;19.65;71.18;100867.09;5097069;28;20052;-59
2022/07/13 00:23:30;;;;;;;1.75;0.93;;;;;;;19.62;71.21;100861.97;5103973;28;20138;-57
2022/07/13 00:26:13;;;;;;;3.83;1.05;;;;;;;19.61;71.19;100856.78;5115693;28;20143;-59
2022/07/13 00:28:41;;;;;;;2.28;1.00;;;;;;;19.59;71.39;100858.63;5114064;28;20047;-59
2022/07/13 00:31:09;;;;;;;3.40;1.20;;;;;;;19.59;71.41;100859.50;5105800;28;20081;-59
2022/07/13 00:33:43;;;;;;;3.63;1.00;;;;;;;19.58;71.42;100856.94;5103440;28;20048;-59
2022/07/13 00:36:13;;;;;;;4.35;1.17;;;;;;;19.58;71.46;100862.19;5105068;28;20048;-59
2022/07/13 00:38:40;;;;;;;2.75;1.00;;;;;;;19.59;71.60;100858.63;5106996;27;20052;-59
2022/07/13 00:41:09;;;;;;;4.43;1.15;;;;;;;19.55;71.52;100852.66;5097336;28;20040;-59
2022/07/13 00:43:36;;;;;;;4.32;1.20;;;;;;;19.53;71.71;100851.88;5113849;28;20051;-58
2022/07/13 00:46:05;;;;;;;4.80;1.00;;;;;;;19.51;71.77;100841.38;5109226;28;20044;-59
2022/07/13 00:48:33;;;;;;;3.88;1.17;;;;;;;19.51;71.80;100841.38;5104982;28;20047;-59
2022/07/13 00:51:11;;;;;;;4.00;0.80;;;;;;;19.50;72.07;100844.09;5110599;28;20107;-59
2022/07/13 00:53:48;;;;;;;4.18;1.10;;;;;;;19.50;71.87;100844.09;5113913;28;20059;-58
2022/07/13 00:56:19;;;;;;;2.10;0.68;;;;;;;19.48;72.00;100841.53;5114212;28;20052;-59
2022/07/13 00:58:47;;;;;;;2.97;0.98;;;;;;;19.46;72.15;100840.75;5111378;28;20051;-59
2022/07/13 01:01:14;;;;;;;2.65;1.17;;;;;;;19.45;72.16;100836.41;5112029;28;20055;-59
2022/07/13 01:03:43;;;;;;;4.28;0.80;;;;;;;19.43;72.09;100832.97;5113177;28;20055;-59
2022/07/13 01:06:11;;;;;;;2.38;0.95;;;;;;;19.41;72.36;100837.47;5113545;28;20044;-59
2022/07/13 01:08:50;;;;;;;2.47;0.98;;;;;;;19.39;72.41;100835.81;5112904;28;20059;-60
2022/07/13 01:11:32;;;;;;;2.30;0.90;;;;;;;19.38;72.41;100819.19;5113659;28;20130;-58
2022/07/13 01:14:03;;;;;;;3.30;0.85;;;;;;;19.37;72.48;100821.88;5112706;28;20058;-58
2022/07/13 01:16:33;;;;;;;2.55;1.05;;;;;;;19.36;72.45;100828.06;5112513;28;20134;-58
2022/07/13 01:19:04;;;;;;;3.28;1.35;;;;;;;19.38;72.60;100824.44;5113475;28;20153;-58
2022/07/13 01:21:39;;;;;;;2.55;0.88;;;;;;;19.37;72.41;100833.25;5113299;28;20043;-58
2022/07/13 01:24:15;;;;;;;3.33;1.15;;;;;;;19.36;72.46;100821.03;5111144;28;20135;-58
2022/07/13 01:26:46;;;;;;;3.88;1.27;;;;;;;19.36;72.54;100820.19;5112607;28;20047;-58
2022/07/13 01:29:14;;;;;;;2.95;1.05;;;;;;;19.35;72.60;100819.31;5113158;28;20051;-58
2022/07/13 01:31:42;;;;;;;3.10;1.17;;;;;;;19.34;72.55;100828.13;5109012;28;20108;-58
2022/07/13 01:34:18;;;;;;;3.72;1.15;;;;;;;19.32;72.63;100818.59;5113016;28;20376;-57
2022/07/13 01:36:53;;;;;;;2.67;0.82;;;;;;;19.32;72.65;100823.84;5110230;28;20047;-58
2022/07/13 01:39:31;;;;;;;2.58;0.90;;;;;;;19.33;72.66;100826.41;5115509;27;20070;-55
2022/07/13 01:41:58;;;;;;;5.47;1.00;;;;;;;19.32;72.62;100824.72;5112878;28;20059;-58
2022/07/13 01:44:28;;;;;;;4.25;1.02;;;;;;;19.30;72.79;100829.19;5112930;28;20040;-57
2022/07/13 01:46:57;;;;;;;4.88;0.90;;;;;;;19.29;72.62;100830.09;5112361;28;20647;-57
2022/07/13 01:49:37;;;;;;;2.97;0.85;;;;;;;19.30;72.86;100821.28;5108580;28;20047;-58
2022/07/13 01:52:07;;;;;;;3.63;1.15;;;;;;;19.27;72.73;100818.81;5107147;28;20058;-58
2022/07/13 01:54:50;;;;;;;4.18;0.90;;;;;;;19.26;72.86;100819.72;5113067;28;20047;-58
2022/07/13 01:57:16;;;;;;;6.40;1.10;;;;;;;19.25;72.95;100825.91;5111642;28;20533;-58
2022/07/13 01:59:46;;;;;;;3.28;0.93;;;;;;;19.21;73.05;100822.50;5111213;28;20048;-58
2022/07/13 02:02:14;;;;;;;4.15;0.85;;;;;;;19.22;73.10;100823.38;5112804;28;20593;-58
2022/07/13 02:04:47;;;;;;;1.70;0.80;;;;;;;19.21;73.17;100817.25;5112446;28;20044;-58
2022/07/13 02:07:15;;;;;;;4.38;1.15;;;;;;;19.21;73.11;100819.88;5112048;28;20048;-58
2022/07/13 02:09:54;;;;;;;3.88;1.00;;;;;;;19.21;73.00;100809.38;5112176;28;20044;-58
2022/07/13 02:12:24;;;;;;;3.53;1.30;;;;;;;19.19;73.04;100813.84;5112316;28;20083;-58
2022/07/13 02:14:54;;;;;;;1.60;0.73;;;;;;;19.19;73.07;100807.72;5112557;28;20050;-58
2022/07/13 02:17:25;;;;;;;3.78;1.10;;;;;;;19.17;73.16;100806.94;5111935;28;20123;-58
2022/07/13 02:22:52;;;;;;;2.65;1.00;;;;;;;19.16;73.05;100807.88;5111062;28;20494;-57
2022/07/13 02:25:29;;;;;;;2.90;1.10;;;;;;;19.15;73.14;100807.00;5111864;28;20538;-58
2022/07/13 02:28:06;;;;;;;3.85;1.10;;;;;;;19.15;73.09;100806.16;5112167;28;20392;-58
2022/07/13 02:30:36;;;;;;;5.40;0.98;;;;;;;19.15;73.17;100808.78;5111100;28;20035;-58
2022/07/13 02:33:04;;;;;;;3.67;0.88;;;;;;;19.16;73.09;100797.34;5109785;28;20126;-58
2022/07/13 02:35:40;;;;;;;3.28;1.10;;;;;;;19.14;73.05;100792.16;5111849;28;20052;-58
2022/07/13 02:38:09;;;;;;;2.72;1.13;;;;;;;19.13;73.15;100792.22;5109935;28;20044;-58
2022/07/13 02:40:46;;;;;;;3.03;0.98;;;;;;;19.14;73.12;100793.94;5112683;28;20048;-58
2022/07/13 02:43:15;;;;;;;4.38;0.80;;;;;;;19.14;73.13;100796.56;5111387;28;20048;-58
2022/07/13 02:45:47;;;;;;;3.78;0.95;;;;;;;19.15;73.12;100796.50;5112702;28;20067;-58
2022/07/13 02:48:23;;;;;;;3.58;1.00;;;;;;;19.17;72.83;100793.81;5111962;28;20112;-58
2022/07/13 02:50:52;;;;;;;4.30;1.00;;;;;;;19.18;72.88;100785.00;5110354;28;20059;-58
2022/07/13 02:53:28;;;;;;;3.03;1.08;;;;;;;19.17;72.90;100788.56;5112037;28;20468;-60
2022/07/13 02:56:11;;;;;;;2.10;0.95;;;;;;;19.19;72.85;100789.34;5112138;28;20055;-57
2022/07/13 02:58:42;;;;;;;1.73;0.93;;;;;;;19.19;72.91;100786.72;5111871;28;20101;-58
2022/07/13 03:01:10;;;;;;;3.88;0.85;;;;;;;19.21;72.83;100783.09;5110085;28;20071;-58
2022/07/13 03:03:38;;;;;;;3.55;1.00;;;;;;;19.24;72.87;100788.22;5112215;28;20372;-58
2022/07/13 03:06:09;;;;;;;2.10;0.80;;;;;;;19.25;72.77;100786.47;5109813;28;20132;-58
2022/07/13 03:08:38;;;;;;;3.33;1.02;;;;;;;19.28;72.81;100786.34;5112310;28;20058;-58
2022/07/13 03:11:14;;;;;;;4.70;1.58;;;;;;;19.32;72.71;100772.16;5109690;28;20127;-58
2022/07/13 03:16:21;;;;;;;2.72;0.90;;;;;;;19.39;72.52;100773.59;5112492;28;20051;-57
2022/07/13 03:18:51;;;;;;;3.28;1.20;;;;;;;19.46;72.38;100782.03;5111253;28;20059;-58
2022/07/13 03:21:21;;;;;;;2.65;1.00;;;;;;;19.52;72.14;100784.41;5112276;28;20047;-58
2022/07/13 03:23:48;;;;;;;2.67;1.10;;;;;;;19.62;71.94;100779.63;5108558;28;20133;-58
2022/07/13 03:26:25;;;;;;;3.50;1.20;;;;;;;19.69;71.64;100775.78;5115988;28;20057;-58
2022/07/13 03:31:35;;;;;;;3.67;1.10;;;;;;;19.89;71.15;100788.03;5113482;28;20050;-57
2022/07/13 03:34:05;;;;;;;3.58;1.27;;;;;;;19.99;70.76;100787.53;5114966;28;20044;-57
2022/07/13 03:36:34;;;;;;;2.33;0.98;;;;;;;20.10;70.54;100787.91;5115361;28;20525;-58
2022/07/13 03:39:03;;;;;;;3.00;1.13;;;;;;;20.20;70.31;100782.19;5118187;27;20047;-57
2022/07/13 03:41:34;;;;;;;4.25;0.85;;;;;;;20.30;69.98;100783.50;5114595;28;20043;-58
2022/07/13 03:44:04;;;;;;;3.03;0.93;;;;;;;20.42;69.60;100778.53;5115341;27;20043;-58
2022/07/13 03:46:33;;;;;;;6.07;0.95;;;;;;;20.54;69.30;100771.78;5114639;28;20550;-58
2022/07/13 03:49:03;;;;;;;2.95;1.05;;;;;;;20.66;69.03;100781.72;5115161;28;20048;-58
2022/07/13 03:51:31;;;;;;;5.22;1.02;;;;;;;20.78;68.69;100780.25;5115443;28;20110;-58
2022/07/13 03:53:57;;;;;;;6.45;1.10;;;;;;;20.90;68.44;100777.03;5114346;28;20051;-57
2022/07/13 03:56:27;;;;;;;2.78;1.02;;;;;;;21.03;67.98;100785.16;5112512;28;20147;-58
2022/07/13 03:59:09;;;;;;;3.00;0.90;;;;;;;21.19;67.52;100783.44;5114871;27;20490;-57
2022/07/13 04:01:40;;;;;;;4.10;1.20;;;;;;;21.33;67.17;100773.09;5113772;28;20078;-56
2022/07/13 04:04:08;;;;;;;3.60;0.73;;;;;;;21.51;66.85;100778.31;5113544;28;20055;-57
2022/07/13 04:06:36;;;;;;;3.95;0.98;;;;;;;21.67;66.26;100782.69;5115503;28;20078;-58
2022/07/13 04:09:12;;;;;;;4.22;1.17;;;;;;;21.82;65.72;100781.00;5115198;28;20043;-58
2022/07/13 04:11:42;;;;;;;4.40;0.88;;;;;;;21.97;65.50;100779.34;5115230;28;20051;-58
2022/07/13 04:14:12;;;;;;;2.15;0.80;;;;;;;22.14;64.83;100796.94;5113033;28;20418;-58
2022/07/13 04:16:42;;;;;;;4.63;1.10;;;;;;;22.28;64.42;100786.44;5115205;28;20044;-58
2022/07/13 04:19:11;;;;;;;5.15;0.98;;;;;;;22.44;63.78;100784.66;5072590;28;20051;-58
2022/07/13 04:21:39;;;;;;;2.92;1.20;;;;;;;22.59;63.40;100797.00;5074905;28;20059;-59
2022/07/13 04:24:07;;;;;;;2.05;0.73;;;;;;;22.77;63.10;100805.63;5072702;28;20055;-59
2022/07/13 04:26:37;;;;;;;2.50;1.10;;;;;;;22.93;62.63;100805.66;5074682;28;20048;-58
2022/07/13 04:29:13;;;;;;;2.53;0.80;;;;;;;23.12;61.93;100800.97;5074593;28;20055;-58
2022/07/13 04:31:45;;;;;;;5.10;1.05;;;;;;;23.31;61.46;100803.38;5074500;28;20045;-57
2022/07/13 04:34:13;;;;;;;7.13;0.90;;;;;;;23.50;61.00;100803.97;5074583;28;20041;-58
2022/07/13 04:36:44;;;;;;;2.03;0.73;;;;;;;23.63;60.44;100798.81;5074479;28;20055;-58
2022/07/13 04:39:21;;;;;;;4.15;0.93;;;;;;;23.74;59.95;100800.78;5074721;28;20049;-58
2022/07/13 04:41:50;;;;;;;2.15;0.80;;;;;;;23.76;59.87;100798.91;5072134;28;20420;-58
2022/07/13 04:44:19;;;;;;;2.78;0.90;;;;;;;23.77;59.83;100803.25;5074772;28;20053;-58
2022/07/13 04:47:06;;;;;;;3.42;1.25;;;;;;;23.67;59.41;100800.31;5071977;28;20063;-58
2022/07/13 04:49:33;;;;;;;5.65;1.05;;;;;;;23.57;59.83;100804.50;5072824;28;20044;-59
2022/07/13 04:52:02;;;;;;;4.38;1.10;;;;;;;23.45;60.07;100794.63;5074125;28;20513;-57
2022/07/13 04:54:33;;;;;;;4.07;0.70;;;;;;;23.30;60.39;100807.81;5073964;28;20071;-58
2022/07/13 04:57:03;;;;;;;3.60;0.90;;;;;;;23.12;60.77;100806.28;5073782;28;20184;-58
2022/07/13 04:59:33;;;;;;;2.63;0.93;;;;;;;23.02;61.04;100805.13;5071627;28;20560;-58
2022/07/13 05:02:16;;;;;;;6.57;1.20;;;;;;;22.94;60.75;100795.00;5072208;28;20106;-58
2022/07/13 05:04:53;;;;;;;7.68;1.60;;;;;;;22.84;61.49;100812.31;5073864;28;20384;-58
2022/07/13 05:07:22;;;;;;;2.60;0.90;;;;;;;22.80;61.70;100817.81;5073867;28;20052;-59
2022/07/13 05:09:50;;;;;;;11.20;1.50;;;;;;;22.77;61.75;100815.38;5073664;28;20044;-58
2022/07/13 05:12:21;;;;;;;2.17;0.80;;;;;;;22.76;61.66;100821.59;5073436;28;20059;-58
2022/07/13 05:14:49;;;;;;;3.65;1.00;;;;;;;22.75;61.57;100819.88;5071308;28;20553;-59
2022/07/13 05:17:22;;;;;;;3.92;1.00;;;;;;;22.71;61.51;100818.34;5084016;28;20162;-59
2022/07/13 05:19:59;;;;;;;2.50;0.95;;;;;;;22.69;61.65;100823.72;5112377;28;20039;-59
2022/07/13 05:22:26;;;;;;;5.35;1.52;;;;;;;22.68;61.86;100836.09;5111140;28;20048;-59
2022/07/13 05:24:56;;;;;;;3.15;0.90;;;;;;;22.74;61.62;100828.75;5114005;28;20054;-59
2022/07/13 05:27:23;;;;;;;1.67;0.85;;;;;;;22.84;61.51;100829.94;5114528;28;20043;-58
2022/07/13 05:29:51;;;;;;;6.35;1.10;;;;;;;23.06;60.92;100830.44;5114697;28;20425;-58
2022/07/13 05:32:21;;;;;;;6.97;1.20;;;;;;;23.30;60.29;100834.25;5114053;28;20052;-59
2022/07/13 05:37:33;;;;;;;3.83;0.90;;;;;;;23.84;58.89;100834.53;5112107;28;20051;-59
2022/07/13 05:40:02;;;;;;;4.35;0.90;;;;;;;24.11;58.10;100825.84;5113865;28;20047;-58
2022/07/13 05:42:32;;;;;;;3.08;0.80;;;;;;;24.42;57.21;100830.88;5113663;28;20135;-59
2022/07/13 05:45:00;;;;;;;4.70;1.00;;;;;;;24.72;56.53;100835.16;5113464;28;20373;-58
2022/07/13 05:47:46;;;;;;;8.35;1.10;;;;;;;25.06;54.51;100821.41;5110353;28;20047;-59
2022/07/13 05:50:24;;;;;;;3.15;1.05;;;;;;;25.37;54.45;100830.78;5112158;28;20048;-58
2022/07/13 05:52:54;;;;;;;46.60;2.45;;;;;;;25.69;53.22;100825.94;5111388;28;20193;-59
2022/07/13 05:55:26;;;;;;;7.50;1.23;;;;;;;25.97;52.49;100829.31;5113282;28;20497;-59
2022/07/13 05:57:57;;;;;;;6.57;1.02;;;;;;;26.20;51.42;100831.19;5112543;28;20050;-59
2022/07/13 06:00:27;;;;;;;3.00;0.73;;;;;;;26.46;50.58;100831.13;5113195;28;20044;-59
2022/07/13 06:03:08;;;;;;;5.00;1.10;;;;;;;26.68;49.16;100823.28;5110700;28;20126;-59
2022/07/13 06:05:36;;;;;;;4.95;1.00;;;;;;;26.88;49.47;100822.66;5113389;28;20059;-59
2022/07/13 06:08:06;;;;;;;7.43;1.08;;;;;;;27.10;48.96;100821.94;5112625;28;20456;-59
2022/07/13 06:10:36;;;;;;;6.55;1.08;;;;;;;27.31;48.34;100819.44;5111636;28;20048;-59
2022/07/13 06:13:06;;;;;;;6.65;1.15;;;;;;;27.48;47.99;100818.97;5109211;28;20439;-59
2022/07/13 06:15:34;;;;;;;18.33;1.50;;;;;;;27.69;47.27;100807.66;5112307;28;20357;-59
2022/07/13 06:18:17;;;;;;;4.82;1.00;;;;;;;27.92;46.50;100815.50;5111374;28;20067;-59
2022/07/13 06:20:47;;;;;;;6.43;1.25;;;;;;;28.12;46.22;100810.41;5111644;28;20482;-59
2022/07/13 06:23:18;;;;;;;10.95;1.20;;;;;;;28.31;45.66;100820.47;5112590;28;20064;-59
2022/07/13 06:25:47;;;;;;;6.47;1.00;;;;;;;28.46;45.27;100820.06;5109063;28;20503;-59
2022/07/13 06:28:16;;;;;;;5.25;1.00;;;;;;;28.61;44.90;100820.63;5112064;28;20158;-57
2022/07/13 06:30:45;;;;;;;6.03;1.13;;;;;;;28.76;44.47;100826.53;5112051;28;20077;-57
2022/07/13 06:33:14;;;;;;;3.85;0.93;;;;;;;28.87;43.91;100835.34;5112174;28;20050;-58
2022/07/13 06:35:44;;;;;;;2.80;0.80;;;;;;;29.01;43.55;100830.69;5111957;28;20059;-56
2022/07/13 06:38:14;;;;;;;3.78;0.90;;;;;;;29.12;43.15;100843.97;5110178;28;20047;-57
2022/07/13 06:40:40;;;;;;;5.97;1.13;;;;;;;29.18;42.45;100843.47;5109532;28;20678;-57
2022/07/13 06:43:08;;;;;;;4.97;0.80;;;;;;;29.24;42.20;100856.28;5108744;28;20044;-58
2022/07/13 06:45:36;;;;;;;6.15;0.93;;;;;;;29.23;41.76;100849.25;5112321;28;20058;-59
2022/07/13 06:48:07;;;;;;;4.15;0.90;;;;;;;29.21;41.52;100837.88;5111860;28;20048;-59
2022/07/13 06:50:45;;;;;;;1.52;0.60;;;;;;;29.30;41.24;100847.75;5111512;28;20452;-59
2022/07/13 06:53:14;;;;;;;2.92;0.60;;;;;;;29.44;41.52;100850.13;5109675;28;20372;-59
2022/07/13 06:55:41;;;;;;;1.90;0.90;;;;;;;29.61;41.35;100845.16;5111973;28;20062;-59
2022/07/13 06:58:10;;;;;;;3.50;0.63;;;;;;;29.79;40.38;100855.09;5112009;28;20047;-59
2022/07/13 07:00:38;;;;;;;11.48;1.00;;;;;;;29.91;40.38;100853.19;5115051;28;20043;-59
2022/07/13 07:03:10;;;;;;;2.47;0.65;;;;;;;30.03;39.82;100862.81;5115825;28;20043;-59
2022/07/13 07:05:53;;;;;;;2.17;0.60;;;;;;;30.12;39.58;100856.66;5115892;28;20083;-58
2022/07/13 07:08:22;;;;;;;1.70;0.60;;;;;;;30.15;40.19;100861.75;5115363;28;20044;-58
2022/07/13 07:10:52;;;;;;;11.05;1.30;;;;;;;30.19;40.03;100857.00;5113589;28;20066;-58
2022/07/13 07:13:21;;;;;;;6.57;1.10;;;;;;;30.22;40.39;100866.56;5115392;28;20539;-59
2022/07/13 07:15:52;;;;;;;4.20;1.05;;;;;;;30.26;40.55;100865.31;5112931;28;20055;-58
2022/07/13 07:18:21;;;;;;;5.93;0.82;;;;;;;30.35;40.83;100856.47;5114815;28;20051;-58
2022/07/13 07:20:50;;;;;;;1.40;0.73;;;;;;;30.44;40.42;100850.28;5113178;28;20055;-59
2022/07/13 07:23:19;;;;;;;3.90;0.63;;;;;;;30.54;40.64;100851.16;5114818;28;20527;-59
2022/07/13 07:25:50;;;;;;;3.50;1.08;;;;;;;30.68;40.19;100853.44;5113190;28;20054;-59
2022/07/13 07:28:18;;;;;;;2.72;0.75;;;;;;;30.76;40.28;100853.63;5115704;28;20067;-59
2022/07/13 07:30:47;;;;;;;4.38;0.80;;;;;;;30.88;39.80;100843.63;5114982;28;20405;-59
2022/07/13 07:33:17;;;;;;;5.20;1.05;;;;;;;30.95;39.52;100849.25;5115235;28;20452;-59
2022/07/13 07:35:47;;;;;;;4.60;1.00;;;;;;;30.98;39.52;100854.31;5115369;28;20044;-59
2022/07/13 07:38:28;;;;;;;2.88;0.80;;;;;;;31.09;38.89;100846.13;5115233;27;20483;-59
2022/07/13 07:43:36;;;;;;;3.85;0.52;;;;;;;31.24;38.89;100844.75;5113651;28;20054;-59
2022/07/13 07:46:04;;;;;;;6.10;0.80;;;;;;;31.30;38.60;100841.50;5115055;28;20062;-59
2022/07/13 07:48:32;;;;;;;4.60;0.98;;;;;;;31.42;38.80;100846.69;5114923;28;20112;-59
2022/07/13 07:51:02;;;;;;;2.47;0.63;;;;;;;31.54;38.55;100846.38;5115258;28;20039;-59
2022/07/13 07:53:32;;;;;;;3.67;0.77;;;;;;;31.67;38.06;100838.00;5112274;28;20479;-58
2022/07/13 07:56:02;;;;;;;28.60;2.30;;;;;;;31.68;37.91;100831.66;5115037;28;20101;-58
2022/07/13 07:58:33;;;;;;;2.00;0.65;;;;;;;31.78;37.47;100832.53;5112478;28;20120;-59
2022/07/13 08:01:02;;;;;;;2.10;0.50;;;;;;;31.87;37.23;100842.34;5114531;28;20062;-58
2022/07/13 08:03:31;;;;;;;1.20;0.50;;;;;;;31.89;37.11;100840.38;5114039;28;20099;-58
2022/07/13 08:06:01;;;;;;;5.28;0.43;;;;;;;31.83;37.46;100843.66;5114921;28;20048;-59
2022/07/13 08:08:36;;;;;;;1.05;0.45;;;;;;;31.73;37.66;100856.22;5111980;28;20440;-59
2022/07/13 08:11:09;;;;;;;4.07;0.80;;;;;;;31.59;37.52;100845.94;5114159;28;20048;-59
2022/07/13 08:13:46;;;;;;;2.28;0.80;;;;;;;31.39;38.20;100848.66;5114312;28;20048;-59
2022/07/13 08:16:16;;;;;;;1.80;0.63;;;;;;;31.22;38.46;100846.75;5112715;28;20127;-59
2022/07/13 08:18:46;;;;;;;5.10;0.85;;;;;;;31.06;38.95;100847.25;5113816;28;20056;-59
2022/07/13 08:21:16;;;;;;;2.83;0.60;;;;;;;30.88;39.04;100842.78;5114846;28;20067;-59
2022/07/13 08:23:54;;;;;;;5.88;0.60;;;;;;;30.72;38.98;100828.13;5114117;28;20051;-59
2022/07/13 08:26:23;;;;;;;2.90;0.60;;;;;;;30.50;39.36;100839.03;5114137;28;21371;-59
2022/07/13 08:28:59;;;;;;;3.75;0.60;;;;;;;30.33;39.19;100831.69;5112191;28;20055;-59
2022/07/13 08:31:29;;;;;;;1.25;0.40;;;;;;;30.11;39.42;100838.94;5114250;28;20040;-59
2022/07/13 08:39:40;;;;;;;5.57;0.75;;;;;;;29.47;40.59;100844.53;5112300;27;20089;-59
2022/07/13 08:42:10;;;;;;;9.63;1.30;;;;;;;29.32;41.17;100845.81;5110863;28;20445;-59
2022/07/13 08:44:40;;;;;;;4.70;1.00;;;;;;;29.15;41.56;100849.91;5114092;28;20047;-59
2022/07/13 08:47:09;;;;;;;4.03;0.98;;;;;;;29.04;42.02;100846.44;5110556;28;20043;-59
2022/07/13 08:49:40;;;;;;;1.70;0.75;;;;;;;28.89;42.42;100854.75;5111635;28;20043;-57
2022/07/13 08:52:17;;;;;;;11.43;1.30;;;;;;;28.68;42.83;100861.84;5110654;28;20464;-58
2022/07/13 08:54:47;;;;;;;8.50;0.82;;;;;;;28.54;43.14;100854.09;5113101;28;20047;-60
2022/07/13 08:57:17;;;;;;;2.45;0.75;;;;;;;28.41;43.60;100864.06;5112521;27;20058;-58
2022/07/13 08:59:45;;;;;;;3.10;0.55;;;;;;;28.24;43.81;100862.75;5113064;28;20383;-58
2022/07/13 09:02:13;;;;;;;2.10;0.50;;;;;;;28.09;44.28;100856.78;5113209;28;20051;-58
2022/07/13 09:04:41;;;;;;;7.25;1.00;;;;;;;27.94;44.24;100848.19;5113295;28;20475;-59
2022/07/13 09:07:18;;;;;;;0.95;0.60;;;;;;;27.85;44.80;100869.41;5111011;28;20057;-59
2022/07/13 09:10:02;;;;;;;4.18;1.00;;;;;;;27.76;44.91;100867.47;5113191;28;20128;-59
2022/07/13 09:12:30;;;;;;;3.22;0.80;;;;;;;27.66;45.24;100864.66;5111007;28;20075;-59
2022/07/13 09:15:01;;;;;;;1.70;0.60;;;;;;;27.58;45.49;100859.91;5113592;28;20050;-58
2022/07/13 09:17:34;;;;;;;1.73;0.60;;;;;;;27.53;45.38;100847.88;5112666;28;20050;-59
2022/07/13 09:20:18;;;;;;;5.83;0.97;;;;;;;27.41;45.65;100841.69;5113127;28;20487;-59
2022/07/13 09:22:54;;;;;;;6.95;0.90;;;;;;;27.28;45.92;100835.63;5112270;28;20142;-59
2022/07/13 09:25:33;;;;;;;7.03;1.20;;;;;;;27.19;46.27;100839.00;5112628;28;20076;-59
2022/07/13 09:28:04;;;;;;;5.63;0.77;;;;;;;27.10;46.18;100837.03;5112437;28;20512;-59
2022/07/13 09:30:38;;;;;;;7.22;0.90;;;;;;;27.03;46.60;100837.47;5110794;28;20043;-59
2022/07/13 09:33:14;;;;;;;15.50;1.33;;;;;;;26.99;46.82;100836.00;5112236;28;20047;-58
2022/07/13 09:35:50;;;;;;;1.30;0.93;;;;;;;26.97;46.73;100827.25;5112999;28;20058;-59
2022/07/13 09:38:34;;;;;;;3.83;0.80;;;;;;;26.92;47.01;100842.72;5109467;27;20104;-57
2022/07/13 09:41:22;;;;;;;6.88;1.08;;;;;;;26.88;47.33;100840.41;5083792;28;20058;-59
2022/07/13 09:46:56;;;;;;;2.00;0.50;;;;;;;26.79;47.43;100838.44;5087376;28;20069;-58
2022/07/13 09:49:34;;;;;;;3.85;0.88;;;;;;;26.75;47.80;100843.16;5078777;28;20562;-59
2022/07/13 09:52:16;;;;;;;32.00;3.78;;;;;;;26.75;47.39;100843.16;5077534;28;20113;-59
2022/07/13 09:54:48;;;;;;;3.75;0.70;;;;;;;26.77;47.67;100837.72;5093611;28;20070;-56
2022/07/13 09:57:25;;;;;;;10.30;1.27;;;;;;;26.84;47.66;100837.13;5093497;28;20055;-58
2022/07/13 10:00:01;;;;;;;6.80;1.05;;;;;;;26.91;47.98;100835.72;5093075;28;20594;-58
2022/07/13 10:02:34;;;;;;;3.95;0.98;;;;;;;27.01;47.53;100833.22;5092576;28;20127;-56
2022/07/13 10:05:10;;;;;;;2.88;0.70;;;;;;;27.16;47.22;100820.59;5089241;28;20052;-58
2022/07/13 10:07:41;;;;;;;4.53;1.27;;;;;;;27.35;47.11;100820.88;5082919;28;20051;-58
2022/07/13 10:10:10;;;;;;;4.05;1.40;;;;;;;27.50;46.59;100814.38;5086758;28;20044;-58
2022/07/13 10:13:05;;;;;;;3.05;0.70;;;;;;;27.63;46.30;100809.00;5083037;28;20075;-57
2022/07/13 10:15:36;;;;;;;4.78;1.02;;;;;;;27.73;46.10;100814.44;5087695;28;20501;-57
2022/07/13 10:18:15;;;;;;;8.77;1.13;;;;;;;27.85;45.91;100808.13;5083553;28;20060;-58
2022/07/13 10:20:50;;;;;;;2.47;0.90;;;;;;;27.95;45.40;100806.44;5072356;28;20056;-59
2022/07/13 10:23:31;;;;;;;;;;;;;;;28.03;44.93;100803.16;5076426;28;20046;-59
2022/07/13 10:26:01;;;;;;;5.72;0.90;;;;;;;28.17;45.31;100800.25;5080353;28;20369;-59
2022/07/13 10:28:45;;;;;;;1.45;0.77;;;;;;;28.30;44.94;100803.63;5086043;28;20139;-59
2022/07/13 10:31:31;;;;;;;3.95;1.35;;;;;;;28.41;44.68;100800.94;5078169;28;20060;-59
2022/07/13 10:34:10;;;;;;;5.18;1.00;;;;;;;28.47;44.68;100799.56;5087610;28;20126;-59
2022/07/13 10:36:52;;;;;;;2.90;0.70;;;;;;;28.54;44.19;100795.44;5116690;28;20094;-59
2022/07/13 10:39:21;;;;;;;14.00;1.50;;;;;;;28.55;44.07;100808.63;5092032;28;20127;-58
2022/07/13 10:42:01;;;;;;;16.08;1.55;;;;;;;28.53;43.52;100799.06;5098264;28;20046;-58
2022/07/13 10:47:45;;;;;;;2.65;0.85;;;;;;;28.64;43.26;100799.06;5131940;27;20401;-59
2022/07/13 10:50:26;;;;;;;3.90;1.05;;;;;;;28.68;43.39;100802.31;5132773;28;20115;-59
2022/07/13 10:52:55;;;;;;;9.30;1.20;;;;;;;28.70;43.73;100795.88;5134020;28;20054;-58
2022/07/13 10:55:52;;;;;;;2.67;1.00;;;;;;;28.72;43.46;100799.25;5134659;27;20039;-58
2022/07/13 10:58:47;;;;;;;4.85;0.88;;;;;;;28.74;43.48;100791.97;5125551;28;20039;-58
2022/07/13 11:01:48;;;;;;;2.17;1.00;;;;;;;28.72;43.53;100799.25;5132611;27;20512;-59
2022/07/13 11:04:50;;;;;;;3.58;1.20;;;;;;;28.69;43.92;100791.50;5133113;27;20494;-59
2022/07/13 11:07:18;;;;;;;6.75;1.25;;;;;;;28.66;44.27;100798.94;5134024;27;20087;-58
2022/07/13 11:10:30;;;;;;;4.53;1.40;;;;;;;28.62;43.86;100793.00;5131812;28;20089;-59
2022/07/13 11:13:12;;;;;;;9.80;1.58;;;;;;;28.54;44.27;100800.75;5133024;28;20100;-58
2022/07/13 11:15:59;;;;;;;4.20;1.45;;;;;;;28.48;44.08;100795.94;5134105;28;20501;-55
2022/07/13 11:18:38;;;;;;;14.40;1.70;;;;;;;28.37;44.48;100794.16;5133541;28;20047;-58
2022/07/13 11:21:23;;;;;;;6.38;2.70;;;;;;;28.17;44.36;100787.75;5133576;28;20057;-58
2022/07/13 11:27:15;;;;;;;5.78;1.40;;;;;;;28.04;44.61;100787.03;5133150;28;20088;-58
2022/07/13 11:29:50;;;;;;;10.82;1.73;;;;;;;28.02;44.87;100786.31;5132909;27;20052;-58
2022/07/13 11:32:24;;;;;;;12.98;1.60;;;;;;;28.01;44.60;100781.94;5127177;27;20059;-58
2022/07/13 11:35:00;;;;;;;4.75;1.50;;;;;;;28.04;44.87;100786.19;5133129;28;20047;-58
2022/07/13 11:37:34;;;;;;;6.38;1.55;;;;;;;28.04;44.64;100775.53;5134465;27;20047;-57
2022/07/13 11:40:04;;;;;;;5.45;1.27;;;;;;;28.04;44.43;100787.03;5153509;27;20061;-59
2022/07/13 11:42:35;;;;;;;3.92;1.38;;;;;;;28.05;44.67;100783.41;5143434;27;20124;-59
2022/07/13 11:45:03;;;;;;;4.60;1.52;;;;;;;28.07;44.78;100778.78;5132610;28;20078;-59
2022/07/13 11:47:34;;;;;;;42.80;4.32;;;;;;;28.10;44.65;100786.56;5132168;28;20073;-58
2022/07/13 11:50:04;;;;;;;6.05;1.55;;;;;;;28.12;44.65;100789.94;5132500;28;20635;-59
2022/07/13 11:52:48;;;;;;;3.85;1.50;;;;;;;28.18;44.67;100777.94;5131680;28;20679;-59
2022/07/13 11:55:16;;;;;;;3.17;1.50;;;;;;;28.23;44.83;100787.28;5132059;28;20063;-59
2022/07/13 11:57:47;;;;;;;3.13;1.55;;;;;;;28.26;44.63;100771.03;5124172;28;20052;-59
2022/07/13 12:00:19;;;;;;;2.88;1.25;;;;;;;28.30;44.42;100770.78;5118710;28;20052;-58
2022/07/13 12:02:51;;;;;;;9.18;1.30;;;;;;;28.36;44.09;100770.28;5099535;28;20087;-59
2022/07/13 12:05:26;;;;;;;5.55;1.58;;;;;;;28.38;44.31;100768.34;5117079;28;20059;-59
2022/07/13 12:08:14;;;;;;;12.07;1.42;;;;;;;28.42;44.26;100780.44;5118437;28;20062;-59
2022/07/13 12:10:43;;;;;;;3.83;1.60;;;;;;;28.48;44.43;100766.59;5118244;28;20130;-59
2022/07/13 12:13:19;;;;;;;7.47;1.70;;;;;;;28.54;44.45;100771.44;5117932;28;20055;-59
2022/07/13 12:15:49;;;;;;;3.20;1.38;;;;;;;28.58;44.37;100765.72;5118222;28;20485;-59
2022/07/13 12:18:17;;;;;;;68.63;6.22;;;;;;;28.63;44.62;100757.34;5118167;28;20055;-59
2022/07/13 12:20:47;;;;;;;5.93;1.65;;;;;;;28.62;44.47;100761.00;5117685;28;20047;-59